Time;durP1;ratioP1;P1;durP2;ratioP2;P2;SDS_P1;SDS_P2;PMS_P1;PMS_P2;Temp;Humidity;BMP_temperature;BMP_pressure;BME280_temperature;BME280_humidity;BME280_pressure;Samples;Min_cycle;Max_cycle;Signal;HPM_P1;HPM_P2
2024/04/22 00:01:44;;;;;;;4.00;3.50;;;8.30;64.60;;;;;;10939145;26;20235;-62
2024/04/22 00:06:49;;;;;;;4.23;3.83;;;8.30;65.00;;;;;;10939576;26;20742;-61
2024/04/22 00:11:57;;;;;;;4.00;3.60;;;8.30;65.10;;;;;;10939929;26;20230;-61
2024/04/22 00:17:02;;;;;;;3.90;3.50;;;8.30;64.90;;;;;;10940869;26;20239;-61
2024/04/22 00:22:08;;;;;;;4.37;3.50;;;8.30;65.70;;;;;;10937725;26;22020;-62
2024/04/22 00:27:16;;;;;;;3.90;3.50;;;8.30;65.70;;;;;;10940820;26;20693;-62
2024/04/22 00:32:21;;;;;;;4.73;3.77;;;8.20;65.50;;;;;;10939460;26;20325;-61
2024/04/22 00:37:26;;;;;;;5.47;3.70;;;8.20;65.80;;;;;;10938677;26;21895;-62
2024/04/22 00:42:34;;;;;;;5.17;3.70;;;8.10;65.90;;;;;;10940093;26;20238;-61
2024/04/22 00:47:40;;;;;;;4.57;3.40;;;8.10;66.00;;;;;;10939154;26;20250;-62
2024/04/22 00:52:47;;;;;;;4.47;3.80;;;8.10;66.30;;;;;;10936205;26;20247;-61
2024/04/22 00:57:58;;;;;;;3.97;3.40;;;8.10;66.40;;;;;;10934301;26;21991;-62
2024/04/22 01:03:04;;;;;;;6.37;3.63;;;8.10;66.90;;;;;;10936184;26;20329;-61
2024/04/22 01:08:10;;;;;;;4.20;3.80;;;8.10;67.30;;;;;;10937336;26;20345;-63
2024/04/22 01:13:18;;;;;;;5.03;3.83;;;8.00;66.80;;;;;;10939108;26;20313;-64
2024/04/22 01:18:24;;;;;;;5.77;3.87;;;8.00;67.30;;;;;;10939635;26;20251;-64
2024/04/22 01:23:36;;;;;;;4.17;3.77;;;8.00;67.80;;;;;;10934366;26;20235;-64
2024/04/22 01:28:41;;;;;;;5.13;3.80;;;8.00;68.00;;;;;;10935725;26;20236;-64
2024/04/22 01:33:47;;;;;;;4.93;4.07;;;7.90;67.90;;;;;;10940087;26;20231;-64
2024/04/22 01:38:55;;;;;;;3.97;3.57;;;7.90;68.10;;;;;;10936869;26;20239;-64
2024/04/22 01:44:00;;;;;;;4.87;4.00;;;7.90;68.50;;;;;;10908142;26;20640;-64
2024/04/22 01:49:06;;;;;;;5.50;4.00;;;7.80;68.40;;;;;;10942344;26;20373;-63
2024/04/22 01:54:14;;;;;;;4.60;4.20;;;7.80;68.40;;;;;;10945475;26;20239;-64
2024/04/22 01:59:21;;;;;;;4.70;3.93;;;7.70;68.70;;;;;;10944581;26;20868;-64
2024/04/22 02:04:26;;;;;;;4.47;4.07;;;7.70;68.80;;;;;;10943177;26;20615;-64
2024/04/22 02:09:34;;;;;;;4.60;3.73;;;7.70;69.10;;;;;;10947844;26;20231;-63
2024/04/22 02:14:39;;;;;;;4.37;3.97;;;7.60;69.20;;;;;;10944267;26;20337;-63
2024/04/22 02:19:45;;;;;;;4.23;3.83;;;7.60;69.40;;;;;;10941427;26;20332;-63
2024/04/22 02:24:53;;;;;;;5.83;4.53;;;7.60;69.30;;;;;;10940854;26;20376;-62
2024/04/22 02:29:58;;;;;;;5.00;4.47;;;7.60;69.60;;;;;;10942090;26;20239;-65
2024/04/22 02:35:04;;;;;;;4.93;4.43;;;7.60;70.00;;;;;;10943709;26;20345;-63
2024/04/22 02:40:12;;;;;;;5.97;4.73;;;7.60;70.00;;;;;;10941427;26;20309;-63
2024/04/22 02:45:18;;;;;;;5.43;4.77;;;7.60;70.10;;;;;;10941585;26;21780;-63
2024/04/22 02:50:23;;;;;;;5.13;4.63;;;7.50;70.20;;;;;;10945517;26;20235;-63
2024/04/22 02:55:31;;;;;;;5.80;4.83;;;7.50;70.60;;;;;;10942065;26;22386;-62
2024/04/22 03:00:37;;;;;;;6.13;5.20;;;7.60;71.50;;;;;;10939406;26;20233;-63
2024/04/22 03:05:42;;;;;;;5.70;5.10;;;7.50;70.70;;;;;;10941369;26;20340;-63
2024/04/22 03:10:50;;;;;;;6.33;4.63;;;7.50;70.80;;;;;;10939359;26;21853;-62
2024/04/22 03:15:55;;;;;;;8.63;5.17;;;7.50;71.00;;;;;;10941754;26;20243;-63
2024/04/22 03:21:01;;;;;;;5.27;4.77;;;7.50;71.20;;;;;;10939177;26;20348;-62
2024/04/22 03:26:10;;;;;;;5.50;5.00;;;7.50;71.40;;;;;;10937330;26;20733;-62
2024/04/22 03:31:15;;;;;;;5.73;5.13;;;7.50;71.30;;;;;;10943889;26;22053;-63
2024/04/22 03:36:21;;;;;;;5.47;4.60;;;7.50;71.30;;;;;;10940838;26;20356;-63
2024/04/22 03:41:29;;;;;;;6.43;5.03;;;7.50;71.60;;;;;;10937445;26;20251;-64
2024/04/22 03:51:56;;;;;;;5.80;5.13;;;7.40;71.80;;;;;;10942480;26;20864;-62
2024/04/22 03:57:04;;;;;;;7.07;6.20;;;7.30;71.80;;;;;;10938724;26;20243;-62
2024/04/22 04:02:10;;;;;;;6.00;5.40;;;7.30;72.10;;;;;;10928959;26;21462;-63
2024/04/22 04:07:15;;;;;;;6.37;5.43;;;7.30;72.10;;;;;;10916436;26;20677;-62
2024/04/22 04:12:23;;;;;;;5.80;5.07;;;7.30;72.30;;;;;;10910971;26;20243;-63
2024/04/22 04:17:28;;;;;;;6.27;5.00;;;7.30;72.40;;;;;;10915863;26;21463;-65
2024/04/22 04:22:34;;;;;;;5.63;5.13;;;7.30;72.50;;;;;;10920540;26;21018;-64
2024/04/22 04:27:42;;;;;;;5.80;5.17;;;7.30;72.60;;;;;;10920769;26;20234;-65
2024/04/22 04:32:47;;;;;;;7.60;5.87;;;7.30;72.80;;;;;;10920773;26;20238;-65
2024/04/22 04:37:53;;;;;;;6.53;5.63;;;7.40;73.30;;;;;;10919294;26;20370;-65
2024/04/22 04:43:00;;;;;;;7.03;5.50;;;7.40;73.40;;;;;;10920774;26;20334;-65
2024/04/22 04:48:06;;;;;;;6.80;5.60;;;7.40;73.30;;;;;;10919244;26;20356;-64
2024/04/22 04:53:13;;;;;;;6.33;5.73;;;7.40;73.40;;;;;;10921407;26;20235;-64
2024/04/22 04:58:21;;;;;;;6.87;5.80;;;7.40;73.00;;;;;;10919171;26;20702;-64
2024/04/22 05:03:29;;;;;;;6.53;5.80;;;7.40;73.60;;;;;;10919637;26;21056;-65
2024/04/22 05:08:35;;;;;;;8.83;6.80;;;7.40;73.70;;;;;;10918565;26;20333;-62
2024/04/22 05:13:43;;;;;;;6.57;5.80;;;7.50;74.20;;;;;;10918448;26;20235;-66
2024/04/22 05:18:48;;;;;;;7.20;6.10;;;7.50;73.90;;;;;;10918616;26;21317;-65
2024/04/22 05:23:55;;;;;;;7.50;6.53;;;7.50;73.70;;;;;;10922759;26;20690;-63
2024/04/22 05:29:03;;;;;;;7.20;6.50;;;7.50;74.00;;;;;;10919283;26;20351;-64
2024/04/22 05:39:31;;;;;;;9.40;6.90;;;7.60;73.90;;;;;;10919870;26;21020;-65
2024/04/22 05:44:39;;;;;;;8.83;7.07;;;7.70;74.00;;;;;;10921441;26;20234;-67
2024/04/22 05:49:44;;;;;;;8.57;7.40;;;7.80;73.60;;;;;;10921254;26;20596;-68
2024/04/22 05:54:50;;;;;;;10.00;7.17;;;7.80;73.70;;;;;;10918335;26;21106;-68
2024/04/22 05:59:58;;;;;;;7.43;6.30;;;7.90;73.50;;;;;;10915342;26;20329;-68
2024/04/22 06:05:03;;;;;;;8.17;6.40;;;8.00;73.00;;;;;;10914828;26;20239;-67
2024/04/22 06:10:09;;;;;;;7.97;6.80;;;8.00;72.60;;;;;;10927722;26;20259;-67
2024/04/22 06:15:17;;;;;;;9.17;7.33;;;8.10;72.90;;;;;;10930810;26;20247;-67
2024/04/22 06:20:23;;;;;;;8.53;6.63;;;8.20;72.60;;;;;;10929018;26;22036;-68
2024/04/22 06:25:28;;;;;;;9.83;7.37;;;8.30;72.10;;;;;;10934592;26;20349;-68
2024/04/22 06:30:36;;;;;;;8.67;6.73;;;8.40;72.50;;;;;;10934844;26;20239;-68
2024/04/22 06:35:42;;;;;;;7.13;6.10;;;8.60;72.30;;;;;;10944587;26;20318;-68
2024/04/22 06:40:48;;;;;;;8.30;6.33;;;8.70;71.90;;;;;;10943049;26;20337;-68
2024/04/22 06:45:56;;;;;;;7.63;6.23;;;8.70;71.70;;;;;;10942378;26;20318;-68
2024/04/22 06:51:01;;;;;;;6.10;5.50;;;8.70;71.90;;;;;;10941952;26;20300;-67
2024/04/22 06:56:07;;;;;;;7.27;6.23;;;8.80;71.80;;;;;;10940739;26;20242;-68
2024/04/22 07:01:15;;;;;;;7.07;6.20;;;8.80;71.50;;;;;;10939512;26;20247;-67
2024/04/22 07:06:35;;;;;;;10.95;6.85;;;8.80;71.30;;;;;;10933583;26;20369;-68
2024/04/22 07:11:41;;;;;;;7.55;5.65;;;8.80;71.40;;;;;;10929454;26;20251;-66
2024/04/22 07:16:56;;;;;;;6.20;5.60;;;8.90;71.40;;;;;;10934961;26;20742;-68
2024/04/22 07:22:02;;;;;;;7.55;6.05;;;8.90;71.20;;;;;;10933884;26;20235;-69
2024/04/22 07:27:10;;;;;;;6.40;5.70;;;9.00;71.00;;;;;;10923888;26;21401;-68
2024/04/22 07:32:31;;;;;;;6.40;5.00;;;9.10;71.70;;;;;;10932153;26;20242;-68
2024/04/22 07:37:38;;;;;;;4.90;4.40;;;9.20;70.80;;;;;;10934921;26;20314;-68
2024/04/22 07:42:44;;;;;;;5.07;3.97;;;9.20;70.30;;;;;;10936650;26;20240;-68
2024/04/22 07:47:54;;;;;;;5.85;4.63;;;9.30;69.80;;;;;;10937369;26;21432;-68
2024/04/22 07:53:00;;;;;;;5.20;4.10;;;9.30;70.10;;;;;;10937056;26;20722;-67
2024/04/22 07:58:06;;;;;;;5.20;4.00;;;9.40;69.90;;;;;;10935607;26;20243;-69
2024/04/22 08:03:15;;;;;;;5.07;4.22;;;9.50;69.80;;;;;;10933786;26;21255;-67
2024/04/22 08:08:21;;;;;;;4.07;3.75;;;9.50;69.40;;;;;;10935589;26;20240;-67
2024/04/22 08:13:27;;;;;;;6.40;4.77;;;9.60;70.00;;;;;;10934090;26;20239;-69
2024/04/22 08:18:35;;;;;;;5.38;3.80;;;9.70;69.90;;;;;;10933447;26;20987;-66
2024/04/22 08:23:41;;;;;;;4.72;3.35;;;9.90;69.00;;;;;;10933517;26;20824;-67
2024/04/22 08:28:46;;;;;;;4.47;3.70;;;10.00;67.20;;;;;;10933985;26;20326;-68
2024/04/22 08:33:54;;;;;;;6.78;4.20;;;10.00;67.20;;;;;;10934217;26;20235;-68
2024/04/22 08:39:00;;;;;;;4.20;3.80;;;10.10;69.10;;;;;;10932014;26;20243;-70
2024/04/22 08:44:05;;;;;;;5.78;3.45;;;10.20;67.60;;;;;;10900829;26;20336;-61
2024/04/22 08:49:14;;;;;;;4.18;3.45;;;10.40;68.50;;;;;;10933672;26;20269;-62
2024/04/22 08:54:19;;;;;;;4.47;3.65;;;10.50;67.90;;;;;;10934948;26;20236;-63
2024/04/22 08:59:30;;;;;;;4.30;3.07;;;10.60;66.10;;;;;;10934892;26;20245;-61
2024/04/22 09:04:47;;;;;;;6.30;3.80;;;10.50;65.90;;;;;;10932679;26;20325;-63
2024/04/22 09:09:53;;;;;;;3.92;3.28;;;10.60;66.20;;;;;;10934133;26;21076;-62
2024/04/22 09:15:18;;;;;;;4.07;2.70;;;10.60;66.10;;;;;;10933667;26;20251;-63
2024/04/22 09:20:29;;;;;;;5.65;3.40;;;10.60;66.30;;;;;;10934563;26;20238;-62
2024/04/22 09:25:35;;;;;;;3.33;3.03;;;10.70;65.70;;;;;;10932459;26;20313;-62
2024/04/22 09:30:42;;;;;;;3.70;3.28;;;10.80;65.90;;;;;;10935270;26;20832;-62
2024/04/22 09:35:53;;;;;;;5.40;2.85;;;10.90;65.70;;;;;;10934472;26;20244;-63
2024/04/22 09:40:59;;;;;;;3.13;2.83;;;10.90;65.00;;;;;;10930887;26;21791;-62
2024/04/22 09:46:06;;;;;;;4.35;3.00;;;11.00;64.90;;;;;;10927141;26;20353;-64
2024/04/22 09:51:14;;;;;;;3.40;2.88;;;11.10;65.00;;;;;;10927071;26;20670;-62
2024/04/22 09:56:24;;;;;;;3.42;3.13;;;11.10;64.80;;;;;;10930592;26;20235;-62
2024/04/22 10:01:29;;;;;;;4.63;3.13;;;11.20;64.30;;;;;;10926442;26;21496;-64
2024/04/22 10:06:38;;;;;;;4.00;2.85;;;11.20;64.40;;;;;;10931932;26;20357;-63
2024/04/22 10:11:45;;;;;;;3.17;2.60;;;11.40;64.80;;;;;;10937659;26;20247;-60
2024/04/22 10:16:58;;;;;;;3.08;2.75;;;11.50;64.10;;;;;;10939493;26;20247;-61
2024/04/22 10:22:08;;;;;;;4.25;2.90;;;11.60;64.00;;;;;;10938565;26;20243;-61
2024/04/22 10:27:15;;;;;;;3.53;3.22;;;11.70;63.70;;;;;;10937833;26;20243;-61
2024/04/22 10:32:21;;;;;;;3.63;3.33;;;11.90;64.10;;;;;;10940389;26;20239;-62
2024/04/22 10:37:29;;;;;;;3.33;2.88;;;12.00;64.50;;;;;;10939872;26;20305;-60
2024/04/22 10:42:34;;;;;;;4.07;3.10;;;12.10;63.40;;;;;;10939259;26;20247;-60
2024/04/22 10:47:40;;;;;;;3.50;3.20;;;12.10;63.40;;;;;;10937486;26;20242;-63
2024/04/22 10:52:48;;;;;;;3.10;2.90;;;12.00;63.20;;;;;;10939799;26;20247;-62
2024/04/22 10:57:55;;;;;;;4.05;2.95;;;12.10;64.20;;;;;;10957432;26;20235;-65
2024/04/22 11:03:01;;;;;;;3.22;2.92;;;12.20;63.60;;;;;;10946885;26;20335;-62
2024/04/22 11:08:11;;;;;;;3.38;3.00;;;12.20;63.60;;;;;;10952739;26;20250;-62
2024/04/22 11:13:17;;;;;;;4.30;3.13;;;12.20;63.10;;;;;;10949738;26;20247;-61
2024/04/22 11:18:23;;;;;;;3.53;3.22;;;12.20;63.20;;;;;;10944128;26;20349;-63
2024/04/22 11:23:31;;;;;;;4.65;3.25;;;12.00;63.20;;;;;;10958840;26;20235;-64
2024/04/22 11:28:37;;;;;;;4.50;3.15;;;11.90;63.20;;;;;;10950430;26;20243;-63
2024/04/22 11:33:42;;;;;;;3.83;3.10;;;11.60;62.10;;;;;;10953671;26;20676;-63
2024/04/22 11:38:50;;;;;;;3.13;2.83;;;11.40;63.10;;;;;;10941355;26;21927;-63
2024/04/22 11:44:01;;;;;;;4.00;3.58;;;11.00;65.20;;;;;;10945701;26;20243;-61
2024/04/22 11:49:06;;;;;;;5.93;3.78;;;10.80;65.90;;;;;;10943679;26;20326;-62
2024/04/22 11:54:14;;;;;;;4.30;3.88;;;10.40;66.20;;;;;;10943035;26;20342;-61
2024/04/22 11:59:20;;;;;;;4.63;3.58;;;10.10;67.70;;;;;;10949546;26;20364;-61
2024/04/22 12:04:25;;;;;;;4.75;4.10;;;9.80;68.80;;;;;;10958920;26;20239;-62
2024/04/22 12:09:33;;;;;;;4.00;3.60;;;9.50;69.70;;;;;;10941808;26;21578;-60
2024/04/22 12:14:38;;;;;;;4.40;4.00;;;9.30;69.80;;;;;;10948371;26;20235;-62
2024/04/22 12:19:44;;;;;;;4.97;4.40;;;9.10;70.80;;;;;;10937307;26;20240;-62
2024/04/22 12:24:52;;;;;;;4.43;4.03;;;9.00;72.00;;;;;;10942890;26;20235;-64
2024/04/22 12:29:58;;;;;;;5.47;4.20;;;8.80;72.80;;;;;;10945646;26;20328;-62
2024/04/22 12:35:03;;;;;;;4.77;4.00;;;8.70;73.60;;;;;;10951146;26;20329;-62
2024/04/22 12:40:12;;;;;;;5.30;4.27;;;8.70;75.70;;;;;;10949859;26;20345;-62
2024/04/22 12:45:18;;;;;;;5.13;4.13;;;8.70;75.00;;;;;;10948698;26;20235;-63
2024/04/22 12:55:48;;;;;;;5.47;3.80;;;8.80;75.00;;;;;;10944415;26;20239;-65
2024/04/22 13:00:53;;;;;;;3.30;2.90;;;8.90;78.10;;;;;;10945362;26;20332;-64
2024/04/22 13:06:01;;;;;;;4.43;3.80;;;9.00;75.30;;;;;;10945063;26;20247;-63
2024/04/22 13:11:09;;;;;;;4.40;4.00;;;9.00;74.20;;;;;;10939888;26;20346;-63
2024/04/22 13:16:15;;;;;;;4.57;4.07;;;9.10;74.20;;;;;;10943837;26;20271;-63
2024/04/22 13:21:20;;;;;;;3.97;3.67;;;9.10;75.90;;;;;;10946333;26;20243;-63
2024/04/22 13:26:28;;;;;;;5.47;4.45;;;9.10;75.80;;;;;;10941916;26;20744;-63
2024/04/22 13:31:34;;;;;;;4.60;4.20;;;9.20;75.60;;;;;;10946053;26;20243;-63
2024/04/22 13:36:55;;;;;;;5.90;4.23;;;9.20;74.40;;;;;;10939114;26;22733;-63
2024/04/22 13:42:03;;;;;;;4.90;4.40;;;9.30;76.80;;;;;;10948979;26;20350;-62
2024/04/22 13:47:09;;;;;;;7.35;4.78;;;9.50;77.90;;;;;;10946017;26;20348;-61
2024/04/22 13:52:14;;;;;;;6.00;5.07;;;9.70;77.30;;;;;;10947729;26;20326;-60
2024/04/22 13:57:22;;;;;;;6.10;5.47;;;9.80;78.80;;;;;;10949836;26;20238;-61
2024/04/22 14:02:27;;;;;;;5.60;5.00;;;9.70;81.30;;;;;;10949043;26;20239;-64
2024/04/22 14:07:33;;;;;;;5.43;4.93;;;9.70;83.50;;;;;;10945149;26;20360;-61
2024/04/22 14:12:41;;;;;;;6.17;5.07;;;9.70;80.20;;;;;;10936242;26;21115;-59
2024/04/22 14:17:47;;;;;;;7.43;5.67;;;9.80;79.60;;;;;;10946611;26;20252;-61
2024/04/22 14:22:52;;;;;;;5.25;4.47;;;9.90;79.50;;;;;;10945596;26;21562;-63
2024/04/22 14:28:00;;;;;;;5.15;4.68;;;10.30;77.80;;;;;;10949856;26;20240;-62
2024/04/22 14:33:06;;;;;;;6.40;4.95;;;10.70;75.60;;;;;;10953227;26;20239;-63
2024/04/22 14:38:12;;;;;;;5.40;4.65;;;11.30;75.60;;;;;;10950592;26;20239;-62
2024/04/22 14:43:20;;;;;;;4.80;4.03;;;12.10;74.20;;;;;;10950683;26;20328;-65
2024/04/22 14:48:25;;;;;;;5.45;3.58;;;12.30;73.30;;;;;;10951035;26;22312;-64
2024/04/22 14:53:31;;;;;;;4.40;4.00;;;12.70;72.60;;;;;;10953567;26;20243;-62
2024/04/22 14:58:39;;;;;;;4.40;3.75;;;12.70;71.60;;;;;;10946952;26;20239;-64
2024/04/22 15:03:45;;;;;;;3.65;3.20;;;12.70;71.50;;;;;;10943932;26;20341;-63
2024/04/22 15:08:50;;;;;;;4.80;3.30;;;13.30;70.90;;;;;;10909141;26;20424;-64
2024/04/22 15:13:58;;;;;;;4.78;3.60;;;14.00;69.90;;;;;;10940034;26;20242;-63
2024/04/22 15:19:04;;;;;;;3.05;2.80;;;14.60;69.00;;;;;;10941665;26;20349;-63
2024/04/22 15:24:09;;;;;;;3.85;3.45;;;14.70;67.30;;;;;;10945780;26;20243;-62
2024/04/22 15:29:17;;;;;;;4.22;3.42;;;14.60;66.90;;;;;;10945197;26;22184;-62
2024/04/22 15:34:23;;;;;;;3.53;3.20;;;14.90;65.80;;;;;;10940249;26;20360;-62
2024/04/22 15:39:28;;;;;;;4.00;3.60;;;14.50;64.50;;;;;;10950945;26;20254;-63
2024/04/22 15:44:36;;;;;;;4.35;3.28;;;14.00;64.50;;;;;;10937508;26;20352;-62
2024/04/22 15:49:42;;;;;;;3.85;3.47;;;13.40;64.40;;;;;;10939220;26;20246;-62
2024/04/22 15:54:47;;;;;;;4.63;4.18;;;12.90;64.40;;;;;;10935225;26;20290;-62
2024/04/22 15:59:56;;;;;;;4.05;3.65;;;12.40;64.80;;;;;;10937428;26;20774;-65
2024/04/22 16:05:13;;;;;;;4.25;3.85;;;11.90;64.40;;;;;;10941743;26;20251;-63
2024/04/22 16:10:19;;;;;;;4.43;4.00;;;11.50;65.90;;;;;;10950273;26;20235;-62
2024/04/22 16:15:27;;;;;;;4.32;3.92;;;11.30;66.00;;;;;;10942551;26;20330;-62
2024/04/22 16:20:32;;;;;;;5.57;3.42;;;11.10;65.60;;;;;;10938864;26;21273;-63
2024/04/22 16:25:38;;;;;;;3.60;3.30;;;10.80;64.10;;;;;;10936328;26;20365;-64
2024/04/22 16:30:46;;;;;;;4.15;3.75;;;10.50;66.00;;;;;;10936820;26;20254;-62
2024/04/22 16:35:52;;;;;;;4.50;3.50;;;10.40;66.40;;;;;;10937725;26;20372;-63
2024/04/22 16:40:57;;;;;;;4.20;3.80;;;10.50;66.70;;;;;;10941568;26;20388;-62
2024/04/22 16:46:05;;;;;;;4.75;4.25;;;10.40;67.00;;;;;;10940397;26;20243;-62
2024/04/22 16:51:11;;;;;;;4.60;4.20;;;10.40;66.40;;;;;;10948030;26;20833;-61
2024/04/22 16:56:16;;;;;;;4.78;3.97;;;10.30;66.90;;;;;;10943123;26;20248;-66
2024/04/22 17:01:25;;;;;;;4.60;3.97;;;10.20;68.40;;;;;;10943502;26;20318;-63
2024/04/22 17:06:31;;;;;;;5.00;4.10;;;10.20;68.30;;;;;;10935326;26;20252;-63
2024/04/22 17:11:37;;;;;;;5.15;4.65;;;10.20;67.50;;;;;;10938191;26;20359;-62
2024/04/22 17:16:45;;;;;;;4.53;3.95;;;10.20;67.30;;;;;;10939259;26;20251;-62
2024/04/22 17:21:50;;;;;;;4.97;4.40;;;10.20;67.40;;;;;;10941458;26;20331;-62
2024/04/22 17:26:58;;;;;;;4.40;4.00;;;10.30;67.70;;;;;;10936215;26;20335;-63
2024/04/22 17:32:06;;;;;;;5.30;4.30;;;10.30;67.70;;;;;;10936918;26;20251;-63
2024/04/22 17:37:17;;;;;;;4.53;4.13;;;10.30;67.70;;;;;;10939468;26;20392;-63
2024/04/22 17:42:23;;;;;;;4.95;4.45;;;10.20;68.80;;;;;;10938867;26;20267;-69
2024/04/22 17:47:31;;;;;;;5.07;4.57;;;10.10;68.60;;;;;;10934797;26;22154;-68
2024/04/22 17:52:37;;;;;;;4.80;4.20;;;10.00;69.40;;;;;;10933750;26;20313;-68
2024/04/22 17:57:42;;;;;;;6.73;4.13;;;10.00;70.90;;;;;;10936353;26;20251;-69
2024/04/22 18:02:50;;;;;;;5.45;4.95;;;9.90;71.20;;;;;;10937363;26;21604;-69
2024/04/22 18:07:56;;;;;;;7.10;5.30;;;9.90;71.30;;;;;;10934101;26;20346;-68
2024/04/22 18:13:01;;;;;;;5.60;5.03;;;9.90;70.50;;;;;;10929595;26;20309;-69
2024/04/22 18:18:10;;;;;;;8.53;7.60;;;9.90;70.30;;;;;;10928068;26;20251;-68
2024/04/22 18:23:15;;;;;;;7.20;5.43;;;9.90;70.30;;;;;;10933154;26;20314;-69
2024/04/22 18:28:21;;;;;;;9.75;5.65;;;9.80;71.10;;;;;;10927558;26;21827;-69
2024/04/22 18:33:30;;;;;;;7.25;6.10;;;9.70;71.60;;;;;;10938425;26;20251;-69
2024/04/22 18:38:35;;;;;;;6.60;5.90;;;9.60;71.80;;;;;;10939204;26;20329;-69
2024/04/22 18:43:40;;;;;;;7.90;6.53;;;9.50;72.40;;;;;;10940785;26;20244;-68
2024/04/22 18:48:49;;;;;;;8.90;6.83;;;9.50;72.30;;;;;;10940496;26;20247;-68
2024/04/22 18:53:55;;;;;;;8.53;6.13;;;9.40;72.30;;;;;;10940603;26;20247;-68
2024/04/22 18:59:00;;;;;;;7.60;6.23;;;9.30;72.60;;;;;;10936117;26;20251;-69
2024/04/22 19:04:08;;;;;;;9.30;6.20;;;9.20;72.40;;;;;;10931009;26;20250;-69
2024/04/22 19:09:14;;;;;;;7.00;6.17;;;9.20;73.10;;;;;;10930100;26;20259;-69
2024/04/22 19:14:20;;;;;;;6.50;5.90;;;9.20;73.10;;;;;;10934189;26;20247;-67
2024/04/22 19:19:28;;;;;;;6.73;6.13;;;9.20;73.00;;;;;;10937187;26;20251;-67
2024/04/22 19:24:33;;;;;;;6.87;6.17;;;9.10;73.30;;;;;;10934361;26;20340;-68
2024/04/22 19:29:42;;;;;;;7.75;6.88;;;9.00;73.50;;;;;;10937779;26;20337;-69
2024/04/22 19:34:51;;;;;;;9.18;6.65;;;8.90;74.00;;;;;;10934666;26;20250;-67
2024/04/22 19:39:57;;;;;;;6.70;6.10;;;8.90;74.10;;;;;;10934983;26;21063;-69
2024/04/22 19:45:02;;;;;;;6.70;6.00;;;8.80;74.20;;;;;;10937517;26;20333;-68
2024/04/22 19:50:11;;;;;;;6.70;5.90;;;8.80;74.10;;;;;;10941293;26;20341;-69
2024/04/22 19:55:17;;;;;;;7.00;6.03;;;8.80;73.90;;;;;;10934880;26;20356;-67
2024/04/22 20:00:23;;;;;;;6.93;6.23;;;8.80;74.30;;;;;;10942753;26;20238;-66
2024/04/22 20:05:31;;;;;;;7.23;6.53;;;8.70;74.20;;;;;;10941583;26;21919;-66
2024/04/22 20:10:41;;;;;;;8.90;6.60;;;8.70;74.20;;;;;;10937500;26;20780;-66
2024/04/22 20:16:03;;;;;;;7.37;6.20;;;8.70;74.20;;;;;;10941834;26;20247;-67
2024/04/22 20:21:11;;;;;;;7.90;6.97;;;8.70;73.70;;;;;;10941206;26;20325;-66
2024/04/22 20:26:16;;;;;;;9.17;6.60;;;8.70;73.80;;;;;;10942530;26;20235;-67
2024/04/22 20:31:22;;;;;;;8.37;7.50;;;8.70;73.80;;;;;;10943871;26;20231;-66
2024/04/22 20:36:31;;;;;;;9.87;7.30;;;8.70;73.60;;;;;;10940717;26;20322;-65
2024/04/22 20:41:36;;;;;;;7.90;6.40;;;8.70;73.30;;;;;;10939736;26;20239;-64
2024/04/22 20:46:41;;;;;;;12.17;6.23;;;8.60;73.40;;;;;;10941136;26;20242;-65
2024/04/22 20:51:50;;;;;;;6.30;5.70;;;8.70;74.20;;;;;;10936371;26;20333;-66
2024/04/22 20:56:55;;;;;;;6.57;4.90;;;8.70;73.70;;;;;;10941505;26;20245;-65
2024/04/22 21:02:00;;;;;;;5.60;5.10;;;8.70;72.80;;;;;;10939450;26;20340;-65
2024/04/22 21:07:09;;;;;;;6.97;5.80;;;8.60;72.50;;;;;;10937436;26;20238;-65
2024/04/22 21:12:16;;;;;;;7.70;6.10;;;8.60;72.60;;;;;;10943098;26;20255;-66
2024/04/22 21:17:22;;;;;;;6.23;5.63;;;8.60;72.00;;;;;;10939274;26;20239;-65
2024/04/22 21:22:31;;;;;;;6.63;5.00;;;8.50;72.00;;;;;;10938928;26;20297;-65
2024/04/22 21:27:55;;;;;;;5.37;4.50;;;8.50;72.10;;;;;;10940061;26;21773;-65
2024/04/22 21:33:01;;;;;;;6.13;5.03;;;8.50;71.80;;;;;;10938556;26;20238;-65
2024/04/22 21:38:29;;;;;;;5.33;4.63;;;8.50;71.80;;;;;;10940520;26;20242;-66
2024/04/22 21:43:34;;;;;;;6.67;5.50;;;8.40;71.70;;;;;;10940572;26;20238;-65
2024/04/22 21:48:40;;;;;;;5.60;4.50;;;8.40;71.50;;;;;;10938769;26;20353;-66
2024/04/22 21:53:49;;;;;;;6.30;5.17;;;8.30;71.50;;;;;;10936280;26;20579;-66
2024/04/22 21:59:32;;;;;;;6.07;5.30;;;8.30;71.60;;;;;;10939538;26;20366;-66
2024/04/22 22:05:15;;;;;;;5.77;5.03;;;8.20;71.60;;;;;;10945187;26;20230;-65
2024/04/22 22:10:24;;;;;;;6.90;5.10;;;8.20;71.60;;;;;;10947291;26;22148;-65
2024/04/22 22:15:29;;;;;;;4.93;4.43;;;8.10;71.60;;;;;;10947008;26;20249;-66
2024/04/22 22:20:35;;;;;;;5.97;5.00;;;8.10;72.10;;;;;;10947941;26;21927;-64
2024/04/22 22:25:43;;;;;;;5.57;5.07;;;8.00;72.40;;;;;;10945598;26;20357;-65
2024/04/22 22:30:48;;;;;;;5.60;5.10;;;7.90;72.40;;;;;;10942389;26;22277;-64
2024/04/22 22:35:54;;;;;;;5.50;4.87;;;7.80;72.90;;;;;;10939995;26;21694;-64
2024/04/22 22:41:02;;;;;;;7.07;5.17;;;7.80;73.10;;;;;;10941298;26;20311;-64
2024/04/22 22:46:07;;;;;;;5.90;5.23;;;7.70;73.40;;;;;;10943214;26;20589;-64
2024/04/22 22:51:13;;;;;;;5.97;5.20;;;7.60;73.60;;;;;;10946773;26;20240;-64
2024/04/22 22:56:21;;;;;;;6.53;5.87;;;7.60;73.70;;;;;;10939245;26;20247;-64
2024/04/22 23:01:27;;;;;;;6.10;5.50;;;7.50;73.70;;;;;;10942835;26;20231;-65
2024/04/22 23:06:32;;;;;;;6.10;5.50;;;7.40;73.60;;;;;;10945583;26;20251;-65
2024/04/22 23:11:40;;;;;;;7.20;5.90;;;7.30;74.00;;;;;;10941825;26;20236;-65
2024/04/22 23:16:50;;;;;;;7.43;6.30;;;7.20;74.10;;;;;;10942746;26;20367;-65
2024/04/22 23:21:56;;;;;;;6.67;5.77;;;7.20;74.20;;;;;;10942069;26;20236;-64
2024/04/22 23:27:04;;;;;;;6.67;5.97;;;7.10;74.30;;;;;;10941893;26;22303;-64
2024/04/22 23:32:09;;;;;;;6.83;6.13;;;7.20;75.30;;;;;;10942802;26;20235;-64
2024/04/22 23:37:15;;;;;;;6.30;5.70;;;7.10;74.40;;;;;;10947224;26;20253;-64
2024/04/22 23:42:23;;;;;;;7.63;6.47;;;7.10;74.40;;;;;;10940134;26;20247;-64
2024/04/22 23:47:28;;;;;;;7.67;5.87;;;7.00;74.30;;;;;;10994325;21;20265;-58
2024/04/22 23:52:33;;;;;;;7.73;6.93;;;7.00;74.80;;;;;;10991515;26;20237;-57
2024/04/22 23:57:41;;;;;;;7.47;6.00;;;6.90;74.70;;;;;;10992884;26;21522;-59
